Wurtsboro, New York
Current Conditions -  °F | °C
As of 2:54 PM on Sunday 25 Jan 2015 (Local Time) from KMGJ Reporting Station
Clear Clear  
Wind Chill: 27°   Ceiling: Unl
Heat Index: 35°   Visibility: 10mi
Dew Point:   Wind: 12mph
Humidity: 34%   Direction: 290°WNW
Pressure: 29.8"   Gusts: 16mph
Location:  41.58°N, 74.49°W
Report Text: KMGJ 251954Z AUTO 29010G14KT 10SM CLR 02/M13 A2980 RMK AO2 SLP093 T00171128 TSNO
Loading
Personal Weather Stations






























Interactive Weather Map New forecast layout! Learn more

10-Day Weather Forecast

Advertisements
Track Severe Weather on mobile